< < Back
Terminal Aerodrome Forecast


Current Version              Previous Versions:   1  2  3  4  5  6  7  8  9  

Terminal Aerodrome Forecast

074
FTUS42 KJAX 291720
TAFJAX
TAF
KJAX 291720Z 2918/3018 32010G15KT P6SM SCT050 SCT250
     FM300000 30004KT P6SM SCT250=

Latest METAR

320
SAUS80 KWBC 300100
MTRJAX
METAR KJAX 300056Z 00000KT 10SM FEW060 FEW250 24/18 A2999 RMK AO2 SLP156
T02440178


USA.gov is the U.S. government's official web portal to all federal, state and local government web resources and services.